createdAt,value
2022-12-19T00:01:55.596Z,2.00
2022-12-19T00:04:25.937Z,6.50
2022-12-19T00:06:57.808Z,4.75
2022-12-19T00:09:28.654Z,1.75
2022-12-19T00:11:58.763Z,4.50
2022-12-19T00:14:29.114Z,6.00
2022-12-19T00:16:59.460Z,5.50
2022-12-19T00:19:30.179Z,4.75
2022-12-19T00:22:00.299Z,5.50
2022-12-19T00:24:30.497Z,4.00
2022-12-19T00:27:00.612Z,8.00
2022-12-19T00:29:32.485Z,4.75
2022-12-19T00:32:02.525Z,4.75
2022-12-19T00:34:32.934Z,5.25
2022-12-19T00:37:02.979Z,2.25
2022-12-19T00:39:33.158Z,7.50
2022-12-19T00:42:03.251Z,2.75
2022-12-19T00:44:34.400Z,5.25
2022-12-19T00:47:04.546Z,3.50
2022-12-19T00:49:35.516Z,5.25
2022-12-19T00:52:06.976Z,7.00
2022-12-19T00:54:37.729Z,4.50
2022-12-19T00:57:08.318Z,1.00
2022-12-19T00:59:38.485Z,5.75
2022-12-19T01:02:09.049Z,3.25
2022-12-19T01:04:41.783Z,3.75
2022-12-19T01:07:11.424Z,6.25
2022-12-19T01:09:42.059Z,4.00
2022-12-19T01:12:12.793Z,4.25
2022-12-19T01:14:43.135Z,5.00
2022-12-19T01:17:13.470Z,5.75
2022-12-19T01:19:44.749Z,4.00
2022-12-19T01:22:15.339Z,4.00
2022-12-19T01:24:45.787Z,4.00
2022-12-19T01:27:16.025Z,0.00
2022-12-19T01:29:52.690Z,2.00
2022-12-19T01:32:18.605Z,4.00
2022-12-19T01:34:48.966Z,2.25
2022-12-19T01:37:20.222Z,4.00
2022-12-19T01:39:50.751Z,4.00
2022-12-19T01:42:23.365Z,1.50
2022-12-19T01:45:13.626Z,3.50
2022-12-19T01:47:53.855Z,1.50
2022-12-19T01:50:35.782Z,3.50
2022-12-19T01:53:08.963Z,3.50
2022-12-19T01:55:41.377Z,3.50
2022-12-19T01:58:13.679Z,4.25
2022-12-19T02:00:45.511Z,2.00
2022-12-19T02:03:24.911Z,2.00
2022-12-19T02:05:55.805Z,3.50
2022-12-19T02:08:29.161Z,5.25
2022-12-19T02:11:01.048Z,4.00
2022-12-19T02:13:31.670Z,4.00
2022-12-19T02:19:39.739Z,4.00
2022-12-19T02:22:24.776Z,4.00
2022-12-19T02:25:09.439Z,6.75
2022-12-19T02:27:42.625Z,2.50
2022-12-19T02:30:33.712Z,5.00
2022-12-19T02:33:42.748Z,1.00
2022-12-19T02:36:18.683Z,5.00
2022-12-19T02:38:53.824Z,4.00
2022-12-19T02:41:38.961Z,5.00
2022-12-19T02:44:15.239Z,4.00
2022-12-19T02:46:49.013Z,4.50
2022-12-19T02:49:24.188Z,0.00
2022-12-19T02:51:51.834Z,4.50
2022-12-19T02:54:22.700Z,5.00
2022-12-19T02:57:01.719Z,5.50
2022-12-19T02:59:34.889Z,2.25
2022-12-19T03:02:11.147Z,5.75
2022-12-19T03:04:56.521Z,6.00
2022-12-19T03:07:32.495Z,2.25
2022-12-19T03:10:11.654Z,5.00
2022-12-19T03:12:47.516Z,4.00
2022-12-19T03:15:19.533Z,4.50
2022-12-19T03:17:50.616Z,4.50
2022-12-19T03:20:40.318Z,3.00
2022-12-19T03:23:11.728Z,5.75
2022-12-19T03:25:44.703Z,4.50
2022-12-19T03:28:28.268Z,4.00
2022-12-19T03:31:01.184Z,5.25
2022-12-19T03:33:34.199Z,3.25
2022-12-19T03:36:07.518Z,2.75
2022-12-19T03:38:43.055Z,4.25
2022-12-19T03:41:34.022Z,5.25
2022-12-19T03:44:06.742Z,3.25
2022-12-19T03:46:41.868Z,4.25
2022-12-19T03:49:13.401Z,5.25
2022-12-19T03:52:00.925Z,5.00
2022-12-19T03:54:43.077Z,4.50
2022-12-19T03:57:24.220Z,4.50
2022-12-19T04:00:00.003Z,5.25
2022-12-19T04:02:32.798Z,2.25
2022-12-19T04:05:06.494Z,3.00
2022-12-19T04:10:21.805Z,5.25
2022-12-19T04:13:01.054Z,7.00
2022-12-19T04:15:35.582Z,4.00
2022-12-19T04:18:08.724Z,4.50
2022-12-19T04:20:59.666Z,5.25
2022-12-19T04:23:35.325Z,13.25
2022-12-19T04:26:07.466Z,4.25
2022-12-19T04:28:58.324Z,4.00
2022-12-19T04:31:28.973Z,4.50
2022-12-19T04:33:59.338Z,4.00
2022-12-19T04:36:30.647Z,5.25
2022-12-19T04:39:00.809Z,5.25
2022-12-19T04:41:31.039Z,7.00
2022-12-19T04:44:01.331Z,6.75
2022-12-19T04:46:32.245Z,7.00
2022-12-19T04:49:02.493Z,3.50
2022-12-19T04:51:33.469Z,14.75
2022-12-19T04:54:03.847Z,12.50
2022-12-19T04:56:35.614Z,9.50
2022-12-19T04:59:06.476Z,7.00
2022-12-19T05:01:37.035Z,12.25
2022-12-19T05:04:10.216Z,6.50
2022-12-19T05:06:41.134Z,8.00
2022-12-19T05:09:12.008Z,8.00
2022-12-19T05:11:42.183Z,9.50
2022-12-19T05:14:12.657Z,21.75
2022-12-19T05:16:43.390Z,21.50
2022-12-19T05:19:13.655Z,19.75
2022-12-19T05:21:43.978Z,21.00
2022-12-19T05:24:14.252Z,14.00
2022-12-19T05:26:44.421Z,13.25
2022-12-19T05:29:17.122Z,15.75
2022-12-19T05:31:47.530Z,20.75
2022-12-19T05:34:17.862Z,15.50
2022-12-19T05:36:48.690Z,18.50
2022-12-19T05:39:19.247Z,21.25
2022-12-19T05:41:49.646Z,12.75
2022-12-19T05:44:20.017Z,10.00
2022-12-19T05:46:50.438Z,5.00
2022-12-19T05:49:21.876Z,6.00
2022-12-19T05:51:52.947Z,17.50
2022-12-19T05:54:23.783Z,11.00
2022-12-19T05:56:54.205Z,6.75
2022-12-19T05:59:24.703Z,5.25
2022-12-19T06:01:55.529Z,6.75
2022-12-19T06:04:25.963Z,6.25
2022-12-19T06:06:56.818Z,4.50
2022-12-19T06:09:27.623Z,4.50
2022-12-19T06:11:58.268Z,3.75
2022-12-19T06:14:28.739Z,3.25
2022-12-19T06:17:00.296Z,5.00
2022-12-19T06:19:31.166Z,4.50
2022-12-19T06:22:01.948Z,7.00
2022-12-19T06:24:32.424Z,6.50
2022-12-19T06:27:02.762Z,9.50
2022-12-19T06:29:33.177Z,7.50
2022-12-19T06:32:04.104Z,7.00
2022-12-19T06:35:02.669Z,10.00
2022-12-19T06:37:08.428Z,17.50
2022-12-19T06:39:43.450Z,9.50
2022-12-19T06:42:11.157Z,11.50
2022-12-19T06:44:41.379Z,11.75
2022-12-19T06:47:11.615Z,14.00
2022-12-19T06:49:41.883Z,7.75
2022-12-19T06:52:12.172Z,12.00
2022-12-19T06:54:42.477Z,8.50
2022-12-19T06:57:13.438Z,11.75
2022-12-19T06:59:44.242Z,10.25
2022-12-19T07:02:26.729Z,7.00
2022-12-19T07:05:00.131Z,8.25
2022-12-19T07:07:31.259Z,13.00
2022-12-19T07:10:01.768Z,12.00
2022-12-19T07:12:32.565Z,15.75
2022-12-19T07:15:23.519Z,9.50
2022-12-19T07:17:55.424Z,34.75
2022-12-19T07:20:27.604Z,32.25
2022-12-19T07:22:57.859Z,32.50
2022-12-19T07:25:28.209Z,8.00
2022-12-19T07:27:58.723Z,20.25
2022-12-19T07:30:28.983Z,9.50
2022-12-19T07:32:59.419Z,10.50
2022-12-19T07:35:31.123Z,19.50
2022-12-19T07:38:06.273Z,10.75
2022-12-19T07:40:41.621Z,7.00
2022-12-19T07:43:14.940Z,6.50
2022-12-19T07:45:45.335Z,10.50
2022-12-19T07:48:15.659Z,7.50
2022-12-19T07:50:45.879Z,6.00
2022-12-19T07:53:17.032Z,9.00
2022-12-19T07:58:50.690Z,7.00
2022-12-19T08:01:21.115Z,10.50
2022-12-19T08:03:51.606Z,10.00
2022-12-19T08:06:22.353Z,7.75
2022-12-19T08:08:52.976Z,9.00
2022-12-19T08:11:23.436Z,7.75
2022-12-19T08:14:02.699Z,11.00
2022-12-19T08:16:43.908Z,7.75
2022-12-19T08:19:05.106Z,8.25
2022-12-19T08:21:35.476Z,6.50
2022-12-19T08:24:06.083Z,4.75
2022-12-19T08:26:41.917Z,7.25
2022-12-19T08:29:08.331Z,8.25
2022-12-19T08:31:38.702Z,11.25
2022-12-19T08:34:09.536Z,0.00
2022-12-19T08:36:42.397Z,5.75
2022-12-19T08:39:14.300Z,8.25
2022-12-19T08:41:47.615Z,9.75
2022-12-19T08:44:17.975Z,10.00
2022-12-19T08:46:50.551Z,5.50
2022-12-19T08:49:21.640Z,10.00
2022-12-19T08:51:56.916Z,11.00
2022-12-19T08:54:30.344Z,7.75
2022-12-19T08:57:00.722Z,7.00
2022-12-19T08:59:32.265Z,10.25
2022-12-19T09:02:03.079Z,10.50
2022-12-19T09:05:59.415Z,8.50
2022-12-19T09:07:07.831Z,9.00
2022-12-19T09:09:38.116Z,8.00
2022-12-19T09:12:10.184Z,10.00
2022-12-19T09:14:40.971Z,10.00
2022-12-19T09:17:14.572Z,7.50
2022-12-19T09:19:47.939Z,9.00
2022-12-19T09:22:18.178Z,9.50
2022-12-19T09:24:51.631Z,8.25
2022-12-19T09:27:23.528Z,5.25
2022-12-19T09:29:54.153Z,8.25
2022-12-19T09:32:27.451Z,8.50
2022-12-19T09:34:58.436Z,5.50
2022-12-19T09:37:30.197Z,12.50
2022-12-19T09:40:00.493Z,10.25
2022-12-19T09:42:56.530Z,9.00
2022-12-19T09:45:47.529Z,10.50
2022-12-19T09:48:24.481Z,14.75
2022-12-19T09:51:09.335Z,19.75
2022-12-19T09:53:45.473Z,18.25
2022-12-19T09:56:18.918Z,13.00
2022-12-19T09:58:52.060Z,10.00
2022-12-19T10:01:49.068Z,13.00
2022-12-19T10:04:20.169Z,8.25
2022-12-19T10:07:11.699Z,8.25
2022-12-19T10:11:38.652Z,8.25
2022-12-19T10:12:42.832Z,10.50
2022-12-19T10:15:09.236Z,9.50
2022-12-19T10:18:11.761Z,10.50
2022-12-19T10:20:50.591Z,5.25
2022-12-19T10:23:56.896Z,10.50
2022-12-19T10:26:50.719Z,8.00
2022-12-19T10:29:26.321Z,6.50
2022-12-19T10:32:18.903Z,10.75
2022-12-19T10:34:53.492Z,7.00
2022-12-19T10:40:36.923Z,7.00
2022-12-19T10:43:25.594Z,9.00
2022-12-19T10:45:53.158Z,8.25
2022-12-19T10:48:31.848Z,5.00
2022-12-19T10:51:06.555Z,5.25
2022-12-19T10:53:35.064Z,7.00
2022-12-19T10:56:14.263Z,9.50
2022-12-19T10:58:44.721Z,7.00
2022-12-19T11:01:23.939Z,7.75
2022-12-19T11:04:12.568Z,5.00
2022-12-19T11:06:46.183Z,9.00
2022-12-19T11:09:24.580Z,8.00
2022-12-19T11:15:34.160Z,6.75
2022-12-19T11:19:47.886Z,7.25
2022-12-19T11:27:37.363Z,8.00
2022-12-19T11:29:34.397Z,7.25
2022-12-19T11:29:54.648Z,6.50
2022-12-19T11:30:21.352Z,7.50
2022-12-19T11:30:59.414Z,8.50
2022-12-19T11:33:57.904Z,6.50
2022-12-19T11:37:05.880Z,6.00
2022-12-19T11:39:39.664Z,6.00
2022-12-19T11:42:23.943Z,4.75
2022-12-19T11:45:02.972Z,8.50
2022-12-19T11:47:57.285Z,5.00
2022-12-19T11:50:33.150Z,6.50
2022-12-19T11:53:19.125Z,7.00
2022-12-19T11:55:53.723Z,4.50
2022-12-19T11:58:26.909Z,6.00
2022-12-19T12:01:25.591Z,6.50
2022-12-19T12:04:10.129Z,5.00
2022-12-19T12:07:17.972Z,7.50
2022-12-19T12:13:24.522Z,7.00
2022-12-19T12:31:23.392Z,7.25
2022-12-19T12:31:31.630Z,7.00
2022-12-19T12:31:39.618Z,18.25
2022-12-19T12:31:39.752Z,3.50
2022-12-19T12:31:52.360Z,10.00
2022-12-19T12:31:53.910Z,8.00
2022-12-19T12:35:47.061Z,6.25
2022-12-19T12:37:09.779Z,8.75
2022-12-19T12:40:31.369Z,4.25
2022-12-19T12:43:21.379Z,4.00
2022-12-19T12:45:51.848Z,5.00
2022-12-19T12:48:34.114Z,7.00
2022-12-19T12:51:07.292Z,5.00
2022-12-19T12:53:41.466Z,4.75
2022-12-19T12:56:15.095Z,5.00
2022-12-19T12:58:54.064Z,5.50
2022-12-19T13:01:42.718Z,5.00
2022-12-19T13:04:16.248Z,4.50
2022-12-19T13:06:56.012Z,4.75
2022-12-19T13:09:29.838Z,4.00
2022-12-19T13:12:19.699Z,4.00
2022-12-19T13:14:52.557Z,4.75
2022-12-19T13:20:31.772Z,5.25
2022-12-19T13:23:05.474Z,4.00
2022-12-19T13:25:38.857Z,4.00
2022-12-19T13:28:24.399Z,4.75
2022-12-19T13:33:48.028Z,2.50
2022-12-19T13:39:35.963Z,4.00
2022-12-19T13:39:48.316Z,3.50
2022-12-19T13:42:14.738Z,4.75
2022-12-19T13:44:45.223Z,5.25
2022-12-19T13:47:21.937Z,4.75
2022-12-19T13:49:48.672Z,4.50
2022-12-19T13:52:19.280Z,4.00
2022-12-19T13:55:12.916Z,3.75
2022-12-19T13:57:46.532Z,2.25
2022-12-19T14:00:22.408Z,2.00
2022-12-19T14:02:55.050Z,4.00
2022-12-19T14:06:15.879Z,5.75
2022-12-19T14:08:10.453Z,8.75
2022-12-19T14:11:44.271Z,8.00
2022-12-19T14:13:57.508Z,8.00
2022-12-19T14:15:53.865Z,8.00
2022-12-19T14:18:42.672Z,14.50
2022-12-19T14:22:05.443Z,10.50
2022-12-19T14:23:48.767Z,28.75
2022-12-19T14:28:17.936Z,31.25
2022-12-19T14:28:57.210Z,11.50
2022-12-19T14:31:28.505Z,14.75
2022-12-19T14:36:37.241Z,30.00
2022-12-19T14:39:22.536Z,18.75
2022-12-19T14:41:47.409Z,12.75
2022-12-19T14:52:52.358Z,15.00
2022-12-19T14:53:52.316Z,16.75
2022-12-19T14:54:07.206Z,24.25
2022-12-19T14:54:31.520Z,32.00
2022-12-19T14:56:03.861Z,4.50
2022-12-19T14:58:50.817Z,12.75
2022-12-19T15:01:07.186Z,10.25
2022-12-19T15:03:13.824Z,9.25
2022-12-19T15:05:39.432Z,9.75
2022-12-19T15:08:13.345Z,10.50
2022-12-19T15:11:08.478Z,8.50
2022-12-19T15:14:50.494Z,10.25
2022-12-19T15:16:02.950Z,20.25
2022-12-19T15:18:38.090Z,28.50
2022-12-19T15:21:17.497Z,24.75
2022-12-19T15:23:47.999Z,21.25
2022-12-19T15:26:31.057Z,11.00
2022-12-19T15:29:03.337Z,13.00
2022-12-19T15:31:39.933Z,22.50
2022-12-19T15:34:34.082Z,22.25
2022-12-19T15:36:47.056Z,11.50
2022-12-19T15:39:18.413Z,7.00
2022-12-19T15:42:09.607Z,9.25
2022-12-19T15:44:43.903Z,9.25
2022-12-19T15:47:20.516Z,4.50
2022-12-19T15:49:54.086Z,7.00
2022-12-19T15:52:24.766Z,4.00
2022-12-19T15:54:58.721Z,6.50
2022-12-19T15:57:37.817Z,7.00
2022-12-19T16:00:17.499Z,6.00
2022-12-19T16:03:22.957Z,7.00
2022-12-19T16:05:22.876Z,4.00
2022-12-19T16:07:53.309Z,7.00
2022-12-19T16:10:24.068Z,8.50
2022-12-19T16:12:56.812Z,5.75
2022-12-19T16:15:32.721Z,1.00
2022-12-19T16:18:04.260Z,6.50
2022-12-19T16:20:36.443Z,9.25
2022-12-19T16:23:08.255Z,6.75
2022-12-19T16:25:42.478Z,6.75
2022-12-19T16:28:18.969Z,3.25
2022-12-19T16:30:49.822Z,5.50
2022-12-19T16:33:24.977Z,9.00
2022-12-19T16:36:05.772Z,7.00
2022-12-19T16:38:30.253Z,10.00
2022-12-19T16:41:04.377Z,5.50
2022-12-19T16:43:37.850Z,6.00
2022-12-19T16:46:14.367Z,12.50
2022-12-19T16:48:45.345Z,5.50
2022-12-19T16:51:22.520Z,11.50
2022-12-19T16:53:55.639Z,8.00
2022-12-19T16:56:28.831Z,6.50
2022-12-19T17:20:54.102Z,9.25
2022-12-19T17:23:31.067Z,6.00
2022-12-19T17:26:11.405Z,11.00
2022-12-19T17:31:55.726Z,8.50
2022-12-19T17:34:46.607Z,9.00
2022-12-19T17:37:33.696Z,7.00
2022-12-19T17:40:12.403Z,7.50
2022-12-19T17:46:11.104Z,7.00
2022-12-19T17:55:02.716Z,7.00
2022-12-19T18:03:59.269Z,9.25
2022-12-19T18:07:05.967Z,12.00
2022-12-19T18:19:05.757Z,11.00
2022-12-19T18:24:41.235Z,11.50
2022-12-19T18:27:40.891Z,12.25
2022-12-19T18:33:34.203Z,13.50
2022-12-19T18:36:47.932Z,13.25
2022-12-19T18:39:52.384Z,12.00
2022-12-19T18:42:45.015Z,11.50
2022-12-19T18:45:27.742Z,10.50
2022-12-19T18:57:46.083Z,10.00
2022-12-19T19:00:23.073Z,9.00
2022-12-19T19:05:59.757Z,13.00
2022-12-19T19:08:42.657Z,11.50
2022-12-19T19:11:21.061Z,12.25
2022-12-19T19:17:07.700Z,10.50
2022-12-19T19:19:46.856Z,11.50
2022-12-19T19:22:22.580Z,12.50
2022-12-19T19:24:59.709Z,9.50
2022-12-19T19:27:48.207Z,11.50
2022-12-19T19:30:39.361Z,14.00
2022-12-19T19:37:02.158Z,9.25
2022-12-19T19:39:34.752Z,9.00
2022-12-19T19:42:06.057Z,15.00
2022-12-19T19:44:44.388Z,12.25
2022-12-19T19:47:34.376Z,11.00
2022-12-19T19:50:22.851Z,13.00
2022-12-19T19:53:27.816Z,12.00
2022-12-19T20:02:27.049Z,11.50
2022-12-19T20:08:13.563Z,22.25
2022-12-19T20:13:41.091Z,12.50
2022-12-19T20:16:17.874Z,15.50
2022-12-19T20:22:18.511Z,8.50
2022-12-19T20:24:36.832Z,14.00
2022-12-19T20:27:11.753Z,17.50
2022-12-19T20:29:59.475Z,10.00
2022-12-19T20:33:17.330Z,17.50
2022-12-19T20:35:26.593Z,13.00
2022-12-19T20:37:57.310Z,12.50
2022-12-19T20:40:32.152Z,15.00
2022-12-19T20:43:37.632Z,14.50
2022-12-19T20:46:10.969Z,15.25
2022-12-19T20:48:53.203Z,15.25
2022-12-19T20:51:26.970Z,4.00
2022-12-19T20:54:47.028Z,17.00
2022-12-19T20:59:27.236Z,14.00
2022-12-19T21:08:24.492Z,42.00
2022-12-19T21:11:13.606Z,4.00
2022-12-19T21:13:28.353Z,19.00
2022-12-19T21:16:01.417Z,17.50
2022-12-19T21:18:33.352Z,16.25
2022-12-19T21:24:08.000Z,13.00
2022-12-19T21:26:31.438Z,16.75
2022-12-19T21:31:50.758Z,14.00
2022-12-19T21:34:21.840Z,12.00
2022-12-19T21:36:54.186Z,14.50
2022-12-19T21:39:24.575Z,17.75
2022-12-19T21:41:55.299Z,15.00
2022-12-19T21:44:25.731Z,16.50
2022-12-19T21:46:56.283Z,12.50
2022-12-19T21:49:26.606Z,12.00
2022-12-19T21:51:56.957Z,13.00
2022-12-19T21:54:27.316Z,16.00
2022-12-19T21:56:57.611Z,19.50
2022-12-19T21:59:29.737Z,12.75
2022-12-19T22:02:00.329Z,15.75
2022-12-19T22:04:32.317Z,16.25
2022-12-19T22:07:05.566Z,17.50
2022-12-19T22:09:36.401Z,13.50
2022-12-19T22:12:07.130Z,16.00
2022-12-19T22:14:37.561Z,16.25
2022-12-19T22:17:08.038Z,15.50
2022-12-19T22:19:38.461Z,14.50
2022-12-19T22:22:08.996Z,13.50
2022-12-19T22:24:39.649Z,12.00
2022-12-19T22:27:10.881Z,15.75
2022-12-19T22:29:41.823Z,3.50
2022-12-19T22:32:12.241Z,12.00
2022-12-19T22:34:42.729Z,9.00
2022-12-19T22:37:13.301Z,13.75
2022-12-19T22:39:43.776Z,10.50
2022-12-19T22:42:14.188Z,15.00
2022-12-19T22:44:44.809Z,12.00
2022-12-19T22:47:15.001Z,12.00
2022-12-19T22:49:45.717Z,14.75
2022-12-19T22:52:16.378Z,17.00
2022-12-19T22:54:46.828Z,12.00
2022-12-19T22:57:24.967Z,10.50
2022-12-19T22:59:56.922Z,11.50
2022-12-19T23:02:28.453Z,11.00
2022-12-19T23:04:59.106Z,15.25
2022-12-19T23:07:29.713Z,12.00
2022-12-19T23:10:00.247Z,12.75
2022-12-19T23:12:30.799Z,12.50
2022-12-19T23:15:01.319Z,10.00
2022-12-19T23:17:32.078Z,9.50
2022-12-19T23:20:02.887Z,12.00
2022-12-19T23:22:34.195Z,14.00
2022-12-19T23:25:05.246Z,12.75
2022-12-19T23:47:33.818Z,12.00
2022-12-19T23:50:04.384Z,12.00
2022-12-19T23:52:34.809Z,13.00
2022-12-19T23:55:07.276Z,15.25
2022-12-19T23:57:37.750Z,11.50
